Agios Georgios I — SX9857 — position and weather

sailwx.info

Track history (hours):
 
Tides and Currents Weather Stations Pressure Air Temp Water Temp Dewpoint Dewpoint Depression Visibility Wind Speed Wind Dir Waves Ship Positions

Agios Georgios I

Last reported at 2016-Feb-11 16:20 UTC. Time now 2016-Feb-13 15:14 UTC.
Position N 37°49' E 025°40'.

Length 59 m; draft 5 m.

Type: Ship (hazmat cat B). MMSI: 239912000.

Date/timePositionNaut miles runAvg speedWind from/ knotsBaromVisibWave heightAir tempDewpointWater temp
2016-Feb-11 16:20N 37°49' E 025°40'7 9.2
2016-Feb-11 15:33N 37°44' E 025°34'9 9.2
2016-Feb-11 14:34N 37°37' E 025°26'9 8.9
2016-Feb-11 13:33N 37°30' E 025°19'3 2.6
2016-Feb-11 12:33N 37°28' E 025°20'0 0.0
2016-Feb-11 11:34N 37°28' E 025°20'0 0.0
2016-Feb-11 10:33N 37°28' E 025°20'7 7.3
2016-Feb-11 09:33N 37°31' E 025°11'7 7.5
2016-Feb-11 08:33N 37°35' E 025°03'7 7.3
2016-Feb-11 07:34N 37°40' E 024°57'2 0.1
2016-Feb-09 18:06N 37°38' E 024°58'5 9.7
2016-Feb-09 17:33N 37°34' E 025°03'5 5.3
2016-Feb-09 16:33N 37°32' E 025°09'0 0.0
2016-Feb-09 15:34N 37°32' E 025°09'4 4.0
2016-Feb-09 14:34N 37°30' E 025°05'8 3.8
2016-Feb-09 12:25N 37°26' E 024°56'0 0.0
2016-Feb-09 11:26N 37°26' E 024°56'0 0.0
2016-Feb-09 07:30N 37°26' E 024°56'0 0.0
2016-Feb-09 05:33N 37°26' E 024°56'9 4.5
2016-Feb-09 03:27N 37°32' E 024°47'48 8.1
2016-Feb-08 21:33N 37°38' E 023°47'8 8.0
2016-Feb-08 20:34N 37°44' E 023°40'9 8.5
2016-Feb-08 19:33N 37°52' E 023°36'6 5.7
2016-Feb-08 18:33N 37°57' E 023°35'0 0.0
2016-Feb-08 17:33N 37°57' E 023°35'0 0.0
2016-Feb-08 16:33N 37°57' E 023°35'0 0.0
2016-Feb-08 15:34N 37°57' E 023°35'0 0.0
2016-Feb-08 14:33N 37°57' E 023°35'0 0.0
2016-Feb-08 13:34N 37°57' E 023°35'0 0.0
2016-Feb-08 12:33N 37°57' E 023°35'0 0.0
2016-Feb-08 11:34N 37°57' E 023°35'0 0.0
2016-Feb-08 10:34N 37°57' E 023°35'0 0.0
2016-Feb-08 09:33N 37°57' E 023°35'0 0.0
2016-Feb-08 08:34N 37°57' E 023°35'0 0.0
2016-Feb-08 07:33N 37°57' E 023°35'0 0.0
2016-Feb-08 06:33N 37°57' E 023°35'0 0.1
2016-Feb-08 05:33N 37°57' E 023°35'2 1.5
2016-Feb-08 04:34N 37°56' E 023°35'8 8.0
2016-Feb-08 03:34N 37°49' E 023°40'8 7.9
2016-Feb-08 02:33N 37°42' E 023°44'23 7.0
2016-Feb-07 23:11N 37°33' E 024°12'26 8.3
2016-Feb-07 20:06N 37°31' E 024°44'5 8.7
2016-Feb-07 19:34N 37°31' E 024°50'7 6.9
2016-Feb-07 18:34N 37°28' E 024°58'3 2.4
2016-Feb-07 17:24N 37°26' E 024°56'0 0.0
2016-Feb-07 16:32N 37°26' E 024°56'0 0.0
2016-Feb-07 15:30N 37°26' E 024°56'2 1.9
2016-Feb-07 14:34N 37°25' E 024°58'2 1.9
2016-Feb-07 13:33N 37°26' E 025°01'9 8.9
2016-Feb-07 12:33N 37°32' E 025°09'1 0.5
2016-Feb-07 11:34N 37°32' E 025°09'0 0.0
2016-Feb-07 10:33N 37°32' E 025°09'0 0.0
2016-Feb-07 09:34N 37°32' E 025°09'4 4.5
2016-Feb-07 08:34N 37°28' E 025°08'7 7.4
2016-Feb-07 07:33N 37°21' E 025°07'7 6.9
2016-Feb-07 06:34N 37°14' E 025°07'6 6.4
2016-Feb-07 05:33N 37°07' E 025°07'2 1.8
2016-Feb-07 04:14N 37°05' E 025°09'0 0.0
2016-Feb-07 02:20N 37°05' E 025°09'0 0.0
2016-Feb-07 01:31N 37°05' E 025°09'0 0.0
2016-Feb-07 00:33N 37°05' E 025°09'0 0.0
2016-Feb-06 23:18N 37°05' E 025°09'0 0.0
2016-Feb-06 22:29N 37°05' E 025°09'0 0.0
2016-Feb-06 21:27N 37°05' E 025°09'0 0.0
2016-Feb-06 19:16N 37°05' E 025°09'0 0.0
2016-Feb-06 18:04N 37°05' E 025°09'0 0.0
2016-Feb-06 17:30N 37°05' E 025°09'0 0.0
2016-Feb-06 16:22N 37°05' E 025°09'0 0.0
2016-Feb-06 13:30N 37°05' E 025°09'0 0.0
2016-Feb-06 12:12N 37°05' E 025°09'0 0.0
2016-Feb-06 11:14N 37°05' E 025°09'0 0.0
2016-Feb-06 10:20N 37°05' E 025°09'0 0.0
2016-Feb-06 09:30N 37°05' E 025°09'0 0.0
2016-Feb-06 08:31N 37°05' E 025°09'0 0.0
2016-Feb-06 07:32N 37°05' E 025°09'0 0.0
2016-Feb-06 06:31N 37°05' E 025°09'0 0.0
2016-Feb-06 05:33N 37°05' E 025°09'0 0.0
2016-Feb-06 04:33N 37°05' E 025°09'0 0.0
2016-Feb-06 03:29N 37°05' E 025°09'0 0.0
2016-Feb-06 02:33N 37°05' E 025°09'0 0.0
2016-Feb-06 01:33N 37°05' E 025°09'0 0.0
2016-Feb-06 00:32N 37°05' E 025°09'0 0.0
2016-Feb-05 23:33N 37°05' E 025°09'0 0.0
2016-Feb-05 22:33N 37°05' E 025°09'0 0.0
2016-Feb-05 21:33N 37°05' E 025°09'0 0.0
2016-Feb-05 20:33N 37°05' E 025°09'0 0.0
2016-Feb-05 19:32N 37°05' E 025°09'0 0.0
2016-Feb-05 18:33N 37°05' E 025°09'0 0.0
2016-Feb-05 17:33N 37°05' E 025°09'0 0.0
2016-Feb-05 16:33N 37°05' E 025°09'0 0.0
2016-Feb-05 15:32N 37°05' E 025°09'0 0.0
2016-Feb-05 14:33N 37°05' E 025°09'0 0.0
2016-Feb-05 13:33N 37°05' E 025°09'0 0.0
2016-Feb-05 12:09N 37°05' E 025°09'0 0.0
2016-Feb-05 11:24N 37°05' E 025°09'0 0.0
2016-Feb-05 10:33N 37°05' E 025°09'0 0.1
2016-Feb-05 09:32N 37°05' E 025°09'0 0.0
2016-Feb-05 08:32N 37°05' E 025°09'0 0.0
2016-Feb-05 07:32N 37°05' E 025°09'0 0.0
2016-Feb-05 06:31N 37°05' E 025°09'0 0.0
2016-Feb-05 05:27N 37°05' E 025°09'0 0.5
2016-Feb-05 04:33N 37°06' E 025°09'0 0.0
2016-Feb-05 03:34N 37°06' E 025°09'0 0.0
2016-Feb-05 02:34N 37°06' E 025°09'0 0.0
2016-Feb-05 01:33N 37°06' E 025°08'0 0.0
2016-Feb-05 00:34N 37°06' E 025°08'0 0.0
2016-Feb-04 23:33N 37°06' E 025°08'0 0.0
2016-Feb-04 22:34N 37°06' E 025°08'0 0.0
2016-Feb-04 21:33N 37°06' E 025°08'0 0.0
2016-Feb-04 20:32N 37°06' E 025°08'0 0.0
2016-Feb-04 19:33N 37°06' E 025°08'30 7.4
2016-Feb-04 15:30N 36°37' E 024°57'0 0.4
2016-Feb-04 14:32N 36°37' E 024°57'0 0.0
2016-Feb-04 13:33N 36°37' E 024°57'3 2.9
2016-Feb-04 12:33N 36°39' E 024°59'24 7.7
2016-Feb-04 09:25N 36°59' E 025°16'6 7.4
2016-Feb-04 08:33N 37°05' E 025°19'3 2.6
2016-Feb-04 07:34N 37°06' E 025°22'0 0.4
2016-Feb-04 06:33N 37°06' E 025°22'0 0.0
2016-Feb-04 05:34N 37°06' E 025°22'0 0.0
2016-Feb-04 04:34N 37°06' E 025°22'0 0.0
2016-Feb-04 03:33N 37°06' E 025°22'0 0.0
2016-Feb-04 02:34N 37°06' E 025°22'2 2.5
2016-Feb-04 01:34N 37°08' E 025°21'8 8.3
2016-Feb-04 00:34N 37°17' E 025°18'8 7.7
2016-Feb-03 23:33N 37°24' E 025°17'4 4.0
2016-Feb-03 22:34N 37°28' E 025°20'0 0.0
2016-Feb-03 21:33N 37°28' E 025°19'0 0.0
2016-Feb-03 20:34N 37°28' E 025°19'0 0.0
2016-Feb-03 19:34N 37°28' E 025°19'0 0.0
2016-Feb-03 18:33N 37°28' E 025°19'4 4.5
2016-Feb-03 17:34N 37°28' E 025°14'9 8.6
2016-Feb-03 16:34N 37°27' E 025°03'6 5.5
2016-Feb-03 15:33N 37°26' E 024°56'0 0.0
2016-Feb-03 14:33N 37°26' E 024°56'0 0.0
2016-Feb-03 13:34N 37°26' E 024°56'0 0.0
2016-Feb-03 12:33N 37°26' E 024°56'0 0.0
2016-Feb-03 11:33N 37°26' E 024°56'0 0.0
2016-Feb-03 10:33N 37°26' E 024°56'0 0.0
2016-Feb-03 09:33N 37°26' E 024°56'0 0.0
2016-Feb-03 08:33N 37°26' E 024°56'0 0.0
2016-Feb-03 07:34N 37°26' E 024°56'0 0.0
2016-Feb-03 06:33N 37°26' E 024°56'1 1.0
2016-Feb-03 05:33N 37°26' E 024°57'7 6.9
2016-Feb-03 04:33N 37°32' E 024°52'43 8.0
2016-Feb-02 23:09N 37°35' E 023°58'5 8.6
2016-Feb-02 22:33N 37°37' E 023°52'9 8.6
2016-Feb-02 21:33N 37°41' E 023°42'9 8.6
2016-Feb-02 20:34N 37°48' E 023°37'8 8.5
2016-Feb-02 19:34N 37°57' E 023°35'1 1.0
2016-Feb-02 18:33N 37°57' E 023°35'0 0.0
2016-Feb-02 17:34N 37°57' E 023°35'0 0.0
2016-Feb-02 16:33N 37°57' E 023°35'0 0.0
2016-Feb-02 15:33N 37°57' E 023°35'0 0.0
2016-Feb-02 14:33N 37°57' E 023°35'0 0.0
2016-Feb-02 13:34N 37°57' E 023°35'0 0.0
2016-Feb-02 12:33N 37°58' E 023°35'0 0.0
2016-Feb-02 11:33N 37°58' E 023°35'0 0.0
2016-Feb-02 10:33N 37°58' E 023°35'0 0.0
2016-Feb-02 09:33N 37°57' E 023°35'0 0.0
2016-Feb-02 08:33N 37°57' E 023°35'0 0.0
2016-Feb-02 07:34N 37°58' E 023°35'0 0.0
2016-Feb-02 06:33N 37°57' E 023°35'1 1.3
2016-Feb-02 05:33N 37°56' E 023°35'7 7.0
2016-Feb-02 04:34N 37°50' E 023°31'7 7.2
2016-Feb-02 03:33N 37°51' E 023°22'7 6.7
2016-Feb-02 02:33N 37°53' E 023°14'  
Track history (hours):
 
Tides and Currents Weather Stations Pressure Air Temp Water Temp Dewpoint Dewpoint Depression Visibility Wind Speed Wind Dir Waves Ship Positions

Agios Georgios I

Last reported at 2016-Feb-11 16:20 UTC. Time now 2016-Feb-13 15:14 UTC.
Position N 37°49' E 025°40'.

Length 59 m; draft 5 m.

Type: Ship (hazmat cat B). MMSI: 239912000.

Date/timePositionNaut miles runAvg speedWind from/ knotsBaromVisibWave heightAir tempDewpointWater temp
2016-Feb-11 16:20N 37°49' E 025°40'7 9.2
2016-Feb-11 15:33N 37°44' E 025°34'9 9.2
2016-Feb-11 14:34N 37°37' E 025°26'9 8.9
2016-Feb-11 13:33N 37°30' E 025°19'3 2.6
2016-Feb-11 12:33N 37°28' E 025°20'0 0.0
2016-Feb-11 11:34N 37°28' E 025°20'0 0.0
2016-Feb-11 10:33N 37°28' E 025°20'7 7.3
2016-Feb-11 09:33N 37°31' E 025°11'7 7.5
2016-Feb-11 08:33N 37°35' E 025°03'7 7.3
2016-Feb-11 07:34N 37°40' E 024°57'2 0.1
2016-Feb-09 18:06N 37°38' E 024°58'5 9.7
2016-Feb-09 17:33N 37°34' E 025°03'5 5.3
2016-Feb-09 16:33N 37°32' E 025°09'0 0.0
2016-Feb-09 15:34N 37°32' E 025°09'4 4.0
2016-Feb-09 14:34N 37°30' E 025°05'8 3.8
2016-Feb-09 12:25N 37°26' E 024°56'0 0.0
2016-Feb-09 11:26N 37°26' E 024°56'0 0.0
2016-Feb-09 07:30N 37°26' E 024°56'0 0.0
2016-Feb-09 05:33N 37°26' E 024°56'9 4.5
2016-Feb-09 03:27N 37°32' E 024°47'48 8.1
2016-Feb-08 21:33N 37°38' E 023°47'8 8.0
2016-Feb-08 20:34N 37°44' E 023°40'9 8.5
2016-Feb-08 19:33N 37°52' E 023°36'6 5.7
2016-Feb-08 18:33N 37°57' E 023°35'0 0.0
2016-Feb-08 17:33N 37°57' E 023°35'0 0.0
2016-Feb-08 16:33N 37°57' E 023°35'0 0.0
2016-Feb-08 15:34N 37°57' E 023°35'0 0.0
2016-Feb-08 14:33N 37°57' E 023°35'0 0.0
2016-Feb-08 13:34N 37°57' E 023°35'0 0.0
2016-Feb-08 12:33N 37°57' E 023°35'0 0.0
2016-Feb-08 11:34N 37°57' E 023°35'0 0.0
2016-Feb-08 10:34N 37°57' E 023°35'0 0.0
2016-Feb-08 09:33N 37°57' E 023°35'0 0.0
2016-Feb-08 08:34N 37°57' E 023°35'0 0.0
2016-Feb-08 07:33N 37°57' E 023°35'0 0.0
2016-Feb-08 06:33N 37°57' E 023°35'0 0.1
2016-Feb-08 05:33N 37°57' E 023°35'2 1.5
2016-Feb-08 04:34N 37°56' E 023°35'8 8.0
2016-Feb-08 03:34N 37°49' E 023°40'8 7.9
2016-Feb-08 02:33N 37°42' E 023°44'23 7.0
2016-Feb-07 23:11N 37°33' E 024°12'26 8.3
2016-Feb-07 20:06N 37°31' E 024°44'5 8.7
2016-Feb-07 19:34N 37°31' E 024°50'7 6.9
2016-Feb-07 18:34N 37°28' E 024°58'3 2.4
2016-Feb-07 17:24N 37°26' E 024°56'0 0.0
2016-Feb-07 16:32N 37°26' E 024°56'0 0.0
2016-Feb-07 15:30N 37°26' E 024°56'2 1.9
2016-Feb-07 14:34N 37°25' E 024°58'2 1.9
2016-Feb-07 13:33N 37°26' E 025°01'9 8.9
2016-Feb-07 12:33N 37°32' E 025°09'1 0.5
2016-Feb-07 11:34N 37°32' E 025°09'0 0.0
2016-Feb-07 10:33N 37°32' E 025°09'0 0.0
2016-Feb-07 09:34N 37°32' E 025°09'4 4.5
2016-Feb-07 08:34N 37°28' E 025°08'7 7.4
2016-Feb-07 07:33N 37°21' E 025°07'7 6.9
2016-Feb-07 06:34N 37°14' E 025°07'6 6.4
2016-Feb-07 05:33N 37°07' E 025°07'2 1.8
2016-Feb-07 04:14N 37°05' E 025°09'0 0.0
2016-Feb-07 02:20N 37°05' E 025°09'0 0.0
2016-Feb-07 01:31N 37°05' E 025°09'0 0.0
2016-Feb-07 00:33N 37°05' E 025°09'0 0.0
2016-Feb-06 23:18N 37°05' E 025°09'0 0.0
2016-Feb-06 22:29N 37°05' E 025°09'0 0.0
2016-Feb-06 21:27N 37°05' E 025°09'0 0.0
2016-Feb-06 19:16N 37°05' E 025°09'0 0.0
2016-Feb-06 18:04N 37°05' E 025°09'0 0.0
2016-Feb-06 17:30N 37°05' E 025°09'0 0.0
2016-Feb-06 16:22N 37°05' E 025°09'0 0.0
2016-Feb-06 13:30N 37°05' E 025°09'0 0.0
2016-Feb-06 12:12N 37°05' E 025°09'0 0.0
2016-Feb-06 11:14N 37°05' E 025°09'0 0.0
2016-Feb-06 10:20N 37°05' E 025°09'0 0.0
2016-Feb-06 09:30N 37°05' E 025°09'0 0.0
2016-Feb-06 08:31N 37°05' E 025°09'0 0.0
2016-Feb-06 07:32N 37°05' E 025°09'0 0.0
2016-Feb-06 06:31N 37°05' E 025°09'0 0.0
2016-Feb-06 05:33N 37°05' E 025°09'0 0.0
2016-Feb-06 04:33N 37°05' E 025°09'0 0.0
2016-Feb-06 03:29N 37°05' E 025°09'0 0.0
2016-Feb-06 02:33N 37°05' E 025°09'0 0.0
2016-Feb-06 01:33N 37°05' E 025°09'0 0.0
2016-Feb-06 00:32N 37°05' E 025°09'0 0.0
2016-Feb-05 23:33N 37°05' E 025°09'0 0.0
2016-Feb-05 22:33N 37°05' E 025°09'0 0.0
2016-Feb-05 21:33N 37°05' E 025°09'0 0.0
2016-Feb-05 20:33N 37°05' E 025°09'0 0.0
2016-Feb-05 19:32N 37°05' E 025°09'0 0.0
2016-Feb-05 18:33N 37°05' E 025°09'0 0.0
2016-Feb-05 17:33N 37°05' E 025°09'0 0.0
2016-Feb-05 16:33N 37°05' E 025°09'0 0.0
2016-Feb-05 15:32N 37°05' E 025°09'0 0.0
2016-Feb-05 14:33N 37°05' E 025°09'0 0.0
2016-Feb-05 13:33N 37°05' E 025°09'0 0.0
2016-Feb-05 12:09N 37°05' E 025°09'0 0.0
2016-Feb-05 11:24N 37°05' E 025°09'0 0.0
2016-Feb-05 10:33N 37°05' E 025°09'0 0.1
2016-Feb-05 09:32N 37°05' E 025°09'0 0.0
2016-Feb-05 08:32N 37°05' E 025°09'0 0.0
2016-Feb-05 07:32N 37°05' E 025°09'0 0.0
2016-Feb-05 06:31N 37°05' E 025°09'0 0.0
2016-Feb-05 05:27N 37°05' E 025°09'0 0.5
2016-Feb-05 04:33N 37°06' E 025°09'0 0.0
2016-Feb-05 03:34N 37°06' E 025°09'0 0.0
2016-Feb-05 02:34N 37°06' E 025°09'0 0.0
2016-Feb-05 01:33N 37°06' E 025°08'0 0.0
2016-Feb-05 00:34N 37°06' E 025°08'0 0.0
2016-Feb-04 23:33N 37°06' E 025°08'0 0.0
2016-Feb-04 22:34N 37°06' E 025°08'0 0.0
2016-Feb-04 21:33N 37°06' E 025°08'0 0.0
2016-Feb-04 20:32N 37°06' E 025°08'0 0.0
2016-Feb-04 19:33N 37°06' E 025°08'30 7.4
2016-Feb-04 15:30N 36°37' E 024°57'0 0.4
2016-Feb-04 14:32N 36°37' E 024°57'0 0.0
2016-Feb-04 13:33N 36°37' E 024°57'3 2.9
2016-Feb-04 12:33N 36°39' E 024°59'24 7.7
2016-Feb-04 09:25N 36°59' E 025°16'6 7.4
2016-Feb-04 08:33N 37°05' E 025°19'3 2.6
2016-Feb-04 07:34N 37°06' E 025°22'0 0.4
2016-Feb-04 06:33N 37°06' E 025°22'0 0.0
2016-Feb-04 05:34N 37°06' E 025°22'0 0.0
2016-Feb-04 04:34N 37°06' E 025°22'0 0.0
2016-Feb-04 03:33N 37°06' E 025°22'0 0.0
2016-Feb-04 02:34N 37°06' E 025°22'2 2.5
2016-Feb-04 01:34N 37°08' E 025°21'8 8.3
2016-Feb-04 00:34N 37°17' E 025°18'8 7.7
2016-Feb-03 23:33N 37°24' E 025°17'4 4.0
2016-Feb-03 22:34N 37°28' E 025°20'0 0.0
2016-Feb-03 21:33N 37°28' E 025°19'0 0.0
2016-Feb-03 20:34N 37°28' E 025°19'0 0.0
2016-Feb-03 19:34N 37°28' E 025°19'0 0.0
2016-Feb-03 18:33N 37°28' E 025°19'4 4.5
2016-Feb-03 17:34N 37°28' E 025°14'9 8.6
2016-Feb-03 16:34N 37°27' E 025°03'6 5.5
2016-Feb-03 15:33N 37°26' E 024°56'0 0.0
2016-Feb-03 14:33N 37°26' E 024°56'0 0.0
2016-Feb-03 13:34N 37°26' E 024°56'0 0.0
2016-Feb-03 12:33N 37°26' E 024°56'0 0.0
2016-Feb-03 11:33N 37°26' E 024°56'0 0.0
2016-Feb-03 10:33N 37°26' E 024°56'0 0.0
2016-Feb-03 09:33N 37°26' E 024°56'0 0.0
2016-Feb-03 08:33N 37°26' E 024°56'0 0.0
2016-Feb-03 07:34N 37°26' E 024°56'0 0.0
2016-Feb-03 06:33N 37°26' E 024°56'1 1.0
2016-Feb-03 05:33N 37°26' E 024°57'7 6.9
2016-Feb-03 04:33N 37°32' E 024°52'43 8.0
2016-Feb-02 23:09N 37°35' E 023°58'5 8.6
2016-Feb-02 22:33N 37°37' E 023°52'9 8.6
2016-Feb-02 21:33N 37°41' E 023°42'9 8.6
2016-Feb-02 20:34N 37°48' E 023°37'8 8.5
2016-Feb-02 19:34N 37°57' E 023°35'1 1.0
2016-Feb-02 18:33N 37°57' E 023°35'0 0.0
2016-Feb-02 17:34N 37°57' E 023°35'0 0.0
2016-Feb-02 16:33N 37°57' E 023°35'0 0.0
2016-Feb-02 15:33N 37°57' E 023°35'0 0.0
2016-Feb-02 14:33N 37°57' E 023°35'0 0.0
2016-Feb-02 13:34N 37°57' E 023°35'0 0.0
2016-Feb-02 12:33N 37°58' E 023°35'0 0.0
2016-Feb-02 11:33N 37°58' E 023°35'0 0.0
2016-Feb-02 10:33N 37°58' E 023°35'0 0.0
2016-Feb-02 09:33N 37°57' E 023°35'0 0.0
2016-Feb-02 08:33N 37°57' E 023°35'0 0.0
2016-Feb-02 07:34N 37°58' E 023°35'0 0.0
2016-Feb-02 06:33N 37°57' E 023°35'1 1.3
2016-Feb-02 05:33N 37°56' E 023°35'7 7.0
2016-Feb-02 04:34N 37°50' E 023°31'7 7.2
2016-Feb-02 03:33N 37°51' E 023°22'7 6.7
2016-Feb-02 02:33N 37°53' E 023°14'  

Dump ship's entire track history